sensor_id;sensor_type;location;lat;lon;timestamp;P1;durP1;ratioP1;P2;durP2;ratioP2
11827;SDS011;5971;49.646;8.568;2022-12-07T00:00:44;3.92;;;2.65;;
11827;SDS011;5971;49.646;8.568;2022-12-07T00:03:46;5.38;;;2.42;;
11827;SDS011;5971;49.646;8.568;2022-12-07T00:06:50;5.57;;;2.63;;
11827;SDS011;5971;49.646;8.568;2022-12-07T00:09:52;3.47;;;2.28;;
11827;SDS011;5971;49.646;8.568;2022-12-07T00:12:53;5.53;;;3.63;;
11827;SDS011;5971;49.646;8.568;2022-12-07T00:15:55;6.03;;;3.85;;
11827;SDS011;5971;49.646;8.568;2022-12-07T00:18:56;5.32;;;2.40;;
11827;SDS011;5971;49.646;8.568;2022-12-07T00:21:58;5.90;;;2.85;;
11827;SDS011;5971;49.646;8.568;2022-12-07T00:24:59;4.85;;;2.30;;
11827;SDS011;5971;49.646;8.568;2022-12-07T00:28:00;4.05;;;2.50;;
11827;SDS011;5971;49.646;8.568;2022-12-07T00:31:02;5.05;;;2.45;;
11827;SDS011;5971;49.646;8.568;2022-12-07T00:34:07;7.05;;;2.28;;
11827;SDS011;5971;49.646;8.568;2022-12-07T00:37:12;5.47;;;3.05;;
11827;SDS011;5971;49.646;8.568;2022-12-07T00:40:14;4.13;;;2.00;;
11827;SDS011;5971;49.646;8.568;2022-12-07T00:43:15;6.25;;;3.10;;
11827;SDS011;5971;49.646;8.568;2022-12-07T00:46:17;3.40;;;2.08;;
11827;SDS011;5971;49.646;8.568;2022-12-07T00:49:19;6.20;;;3.15;;
11827;SDS011;5971;49.646;8.568;2022-12-07T00:52:20;3.28;;;1.83;;
11827;SDS011;5971;49.646;8.568;2022-12-07T00:55:21;3.95;;;2.47;;
11827;SDS011;5971;49.646;8.568;2022-12-07T00:58:23;6.43;;;3.35;;
11827;SDS011;5971;49.646;8.568;2022-12-07T01:01:25;5.75;;;2.70;;
11827;SDS011;5971;49.646;8.568;2022-12-07T01:04:27;4.50;;;2.25;;
11827;SDS011;5971;49.646;8.568;2022-12-07T01:07:28;4.88;;;2.25;;
11827;SDS011;5971;49.646;8.568;2022-12-07T01:10:29;4.25;;;2.05;;
11827;SDS011;5971;49.646;8.568;2022-12-07T01:13:32;4.82;;;2.85;;
11827;SDS011;5971;49.646;8.568;2022-12-07T01:16:33;3.78;;;2.28;;
11827;SDS011;5971;49.646;8.568;2022-12-07T01:19:35;3.47;;;1.90;;
11827;SDS011;5971;49.646;8.568;2022-12-07T01:22:40;3.45;;;2.13;;
11827;SDS011;5971;49.646;8.568;2022-12-07T01:25:41;6.93;;;2.45;;
11827;SDS011;5971;49.646;8.568;2022-12-07T01:28:43;5.68;;;2.50;;
11827;SDS011;5971;49.646;8.568;2022-12-07T01:31:44;2.85;;;1.85;;
11827;SDS011;5971;49.646;8.568;2022-12-07T01:34:47;5.55;;;2.38;;
11827;SDS011;5971;49.646;8.568;2022-12-07T01:37:48;2.92;;;1.55;;
11827;SDS011;5971;49.646;8.568;2022-12-07T01:40:53;3.42;;;1.55;;
11827;SDS011;5971;49.646;8.568;2022-12-07T01:46:57;2.88;;;2.10;;
11827;SDS011;5971;49.646;8.568;2022-12-07T01:49:58;4.32;;;2.33;;
11827;SDS011;5971;49.646;8.568;2022-12-07T01:53:01;3.20;;;1.80;;
11827;SDS011;5971;49.646;8.568;2022-12-07T01:56:03;3.30;;;2.10;;
11827;SDS011;5971;49.646;8.568;2022-12-07T01:59:06;3.60;;;1.88;;
11827;SDS011;5971;49.646;8.568;2022-12-07T02:02:10;5.28;;;2.00;;
11827;SDS011;5971;49.646;8.568;2022-12-07T02:05:14;2.67;;;1.88;;
11827;SDS011;5971;49.646;8.568;2022-12-07T02:08:17;3.33;;;2.47;;
11827;SDS011;5971;49.646;8.568;2022-12-07T02:11:19;3.78;;;2.22;;
11827;SDS011;5971;49.646;8.568;2022-12-07T02:14:21;4.35;;;2.13;;
11827;SDS011;5971;49.646;8.568;2022-12-07T02:17:28;4.20;;;2.17;;
11827;SDS011;5971;49.646;8.568;2022-12-07T02:20:33;4.13;;;3.28;;
11827;SDS011;5971;49.646;8.568;2022-12-07T02:27:00;4.65;;;2.75;;
11827;SDS011;5971;49.646;8.568;2022-12-07T02:30:13;4.43;;;2.47;;
11827;SDS011;5971;49.646;8.568;2022-12-07T02:33:19;4.20;;;1.92;;
11827;SDS011;5971;49.646;8.568;2022-12-07T02:36:26;4.75;;;2.78;;
11827;SDS011;5971;49.646;8.568;2022-12-07T02:39:41;3.30;;;2.25;;
11827;SDS011;5971;49.646;8.568;2022-12-07T02:42:47;4.63;;;2.72;;
11827;SDS011;5971;49.646;8.568;2022-12-07T02:45:55;3.90;;;2.42;;
11827;SDS011;5971;49.646;8.568;2022-12-07T02:48:57;6.28;;;2.53;;
11827;SDS011;5971;49.646;8.568;2022-12-07T02:52:00;7.13;;;2.63;;
11827;SDS011;5971;49.646;8.568;2022-12-07T02:55:01;4.63;;;2.40;;
11827;SDS011;5971;49.646;8.568;2022-12-07T03:10:54;5.15;;;2.67;;
11827;SDS011;5971;49.646;8.568;2022-12-07T03:15:07;6.15;;;4.00;;
11827;SDS011;5971;49.646;8.568;2022-12-07T03:17:28;5.45;;;2.28;;
11827;SDS011;5971;49.646;8.568;2022-12-07T03:20:31;3.67;;;2.35;;
11827;SDS011;5971;49.646;8.568;2022-12-07T03:23:33;5.57;;;2.97;;
11827;SDS011;5971;49.646;8.568;2022-12-07T03:26:37;7.35;;;2.63;;
11827;SDS011;5971;49.646;8.568;2022-12-07T03:29:41;5.22;;;3.13;;
11827;SDS011;5971;49.646;8.568;2022-12-07T03:35:56;4.70;;;2.42;;
11827;SDS011;5971;49.646;8.568;2022-12-07T03:39:02;8.02;;;3.88;;
11827;SDS011;5971;49.646;8.568;2022-12-07T03:42:05;4.68;;;2.70;;
11827;SDS011;5971;49.646;8.568;2022-12-07T03:45:08;6.80;;;2.90;;
11827;SDS011;5971;49.646;8.568;2022-12-07T03:48:16;4.68;;;2.38;;
11827;SDS011;5971;49.646;8.568;2022-12-07T03:51:30;5.13;;;2.78;;
11827;SDS011;5971;49.646;8.568;2022-12-07T03:54:39;7.75;;;3.00;;
11827;SDS011;5971;49.646;8.568;2022-12-07T03:57:42;7.25;;;3.58;;
11827;SDS011;5971;49.646;8.568;2022-12-07T04:00:44;5.00;;;3.50;;
11827;SDS011;5971;49.646;8.568;2022-12-07T04:03:45;4.72;;;2.85;;
11827;SDS011;5971;49.646;8.568;2022-12-07T04:06:46;5.20;;;2.88;;
11827;SDS011;5971;49.646;8.568;2022-12-07T04:09:48;9.70;;;2.95;;
11827;SDS011;5971;49.646;8.568;2022-12-07T04:12:49;6.15;;;2.95;;
11827;SDS011;5971;49.646;8.568;2022-12-07T04:15:50;4.32;;;2.95;;
11827;SDS011;5971;49.646;8.568;2022-12-07T04:18:52;4.65;;;2.80;;
11827;SDS011;5971;49.646;8.568;2022-12-07T04:21:53;7.80;;;3.50;;
11827;SDS011;5971;49.646;8.568;2022-12-07T04:24:54;6.15;;;2.95;;
11827;SDS011;5971;49.646;8.568;2022-12-07T04:27:56;6.85;;;3.20;;
11827;SDS011;5971;49.646;8.568;2022-12-07T04:30:57;10.00;;;4.30;;
11827;SDS011;5971;49.646;8.568;2022-12-07T04:33:58;6.65;;;3.38;;
11827;SDS011;5971;49.646;8.568;2022-12-07T04:37:00;5.78;;;3.40;;
11827;SDS011;5971;49.646;8.568;2022-12-07T04:40:01;4.85;;;3.28;;
11827;SDS011;5971;49.646;8.568;2022-12-07T04:43:03;7.20;;;3.75;;
11827;SDS011;5971;49.646;8.568;2022-12-07T04:46:05;8.68;;;4.15;;
11827;SDS011;5971;49.646;8.568;2022-12-07T04:49:07;7.15;;;3.90;;
11827;SDS011;5971;49.646;8.568;2022-12-07T04:52:08;8.25;;;4.57;;
11827;SDS011;5971;49.646;8.568;2022-12-07T04:55:09;7.05;;;4.20;;
11827;SDS011;5971;49.646;8.568;2022-12-07T04:58:11;5.50;;;3.25;;
11827;SDS011;5971;49.646;8.568;2022-12-07T05:01:13;3.95;;;2.70;;
11827;SDS011;5971;49.646;8.568;2022-12-07T05:04:15;5.97;;;3.60;;
11827;SDS011;5971;49.646;8.568;2022-12-07T05:07:17;4.43;;;2.60;;
11827;SDS011;5971;49.646;8.568;2022-12-07T05:10:18;6.72;;;3.13;;
11827;SDS011;5971;49.646;8.568;2022-12-07T05:13:19;5.15;;;2.70;;
11827;SDS011;5971;49.646;8.568;2022-12-07T05:16:20;7.72;;;3.30;;
11827;SDS011;5971;49.646;8.568;2022-12-07T05:19:22;6.10;;;2.90;;
11827;SDS011;5971;49.646;8.568;2022-12-07T05:22:23;3.30;;;2.15;;
11827;SDS011;5971;49.646;8.568;2022-12-07T05:25:29;5.25;;;3.00;;
11827;SDS011;5971;49.646;8.568;2022-12-07T05:28:30;5.05;;;3.20;;
11827;SDS011;5971;49.646;8.568;2022-12-07T05:31:31;3.75;;;1.60;;
11827;SDS011;5971;49.646;8.568;2022-12-07T05:34:32;5.00;;;2.70;;
11827;SDS011;5971;49.646;8.568;2022-12-07T05:37:34;5.63;;;3.10;;
11827;SDS011;5971;49.646;8.568;2022-12-07T05:40:36;6.80;;;3.28;;
11827;SDS011;5971;49.646;8.568;2022-12-07T05:43:37;5.88;;;2.58;;
11827;SDS011;5971;49.646;8.568;2022-12-07T05:46:38;5.78;;;3.28;;
11827;SDS011;5971;49.646;8.568;2022-12-07T05:49:40;6.75;;;2.80;;
11827;SDS011;5971;49.646;8.568;2022-12-07T05:52:41;5.82;;;2.47;;
11827;SDS011;5971;49.646;8.568;2022-12-07T05:55:43;4.90;;;2.92;;
11827;SDS011;5971;49.646;8.568;2022-12-07T05:58:44;4.57;;;3.03;;
11827;SDS011;5971;49.646;8.568;2022-12-07T06:02:09;3.63;;;2.92;;
11827;SDS011;5971;49.646;8.568;2022-12-07T06:05:10;4.00;;;2.65;;
11827;SDS011;5971;49.646;8.568;2022-12-07T06:08:12;4.97;;;2.97;;
11827;SDS011;5971;49.646;8.568;2022-12-07T06:11:15;3.97;;;2.17;;
11827;SDS011;5971;49.646;8.568;2022-12-07T06:14:36;4.93;;;2.33;;
11827;SDS011;5971;49.646;8.568;2022-12-07T06:17:37;5.63;;;2.90;;
11827;SDS011;5971;49.646;8.568;2022-12-07T06:20:38;6.05;;;2.92;;
11827;SDS011;5971;49.646;8.568;2022-12-07T06:23:39;5.05;;;3.08;;
11827;SDS011;5971;49.646;8.568;2022-12-07T06:26:41;7.80;;;3.33;;
11827;SDS011;5971;49.646;8.568;2022-12-07T06:29:42;6.30;;;2.80;;
11827;SDS011;5971;49.646;8.568;2022-12-07T06:32:44;6.68;;;3.70;;
11827;SDS011;5971;49.646;8.568;2022-12-07T06:35:45;6.35;;;3.15;;
11827;SDS011;5971;49.646;8.568;2022-12-07T06:38:46;5.93;;;3.13;;
11827;SDS011;5971;49.646;8.568;2022-12-07T06:41:48;5.10;;;2.92;;
11827;SDS011;5971;49.646;8.568;2022-12-07T06:44:49;6.07;;;3.10;;
11827;SDS011;5971;49.646;8.568;2022-12-07T06:47:50;6.78;;;2.60;;
11827;SDS011;5971;49.646;8.568;2022-12-07T06:50:52;7.18;;;3.40;;
11827;SDS011;5971;49.646;8.568;2022-12-07T06:53:55;7.22;;;3.72;;
11827;SDS011;5971;49.646;8.568;2022-12-07T06:56:56;6.88;;;3.53;;
11827;SDS011;5971;49.646;8.568;2022-12-07T06:59:58;7.70;;;4.43;;
11827;SDS011;5971;49.646;8.568;2022-12-07T07:03:00;8.45;;;4.60;;
11827;SDS011;5971;49.646;8.568;2022-12-07T07:06:02;5.35;;;3.03;;
11827;SDS011;5971;49.646;8.568;2022-12-07T07:09:03;7.15;;;2.92;;
11827;SDS011;5971;49.646;8.568;2022-12-07T07:12:04;6.40;;;2.78;;
11827;SDS011;5971;49.646;8.568;2022-12-07T07:15:06;5.43;;;2.65;;
11827;SDS011;5971;49.646;8.568;2022-12-07T07:18:07;4.50;;;3.20;;
11827;SDS011;5971;49.646;8.568;2022-12-07T07:21:09;7.25;;;3.80;;
11827;SDS011;5971;49.646;8.568;2022-12-07T07:24:10;5.00;;;2.97;;
11827;SDS011;5971;49.646;8.568;2022-12-07T07:27:11;10.90;;;4.78;;
11827;SDS011;5971;49.646;8.568;2022-12-07T07:30:12;4.30;;;3.40;;
11827;SDS011;5971;49.646;8.568;2022-12-07T07:33:14;11.15;;;4.13;;
11827;SDS011;5971;49.646;8.568;2022-12-07T07:36:16;8.15;;;3.53;;
11827;SDS011;5971;49.646;8.568;2022-12-07T07:39:17;8.07;;;3.60;;
11827;SDS011;5971;49.646;8.568;2022-12-07T07:42:18;6.53;;;4.47;;
11827;SDS011;5971;49.646;8.568;2022-12-07T07:45:20;13.23;;;3.95;;
11827;SDS011;5971;49.646;8.568;2022-12-07T07:48:22;9.55;;;3.95;;
11827;SDS011;5971;49.646;8.568;2022-12-07T07:51:25;7.88;;;4.38;;
11827;SDS011;5971;49.646;8.568;2022-12-07T07:54:27;4.95;;;3.22;;
11827;SDS011;5971;49.646;8.568;2022-12-07T07:57:28;5.13;;;3.65;;
11827;SDS011;5971;49.646;8.568;2022-12-07T08:00:29;9.00;;;3.50;;
11827;SDS011;5971;49.646;8.568;2022-12-07T08:03:31;6.43;;;3.53;;
11827;SDS011;5971;49.646;8.568;2022-12-07T08:06:32;6.20;;;3.70;;
11827;SDS011;5971;49.646;8.568;2022-12-07T08:09:33;6.80;;;3.33;;
11827;SDS011;5971;49.646;8.568;2022-12-07T08:12:36;6.35;;;3.55;;
11827;SDS011;5971;49.646;8.568;2022-12-07T08:15:38;8.60;;;3.97;;
11827;SDS011;5971;49.646;8.568;2022-12-07T08:18:40;5.80;;;3.33;;
11827;SDS011;5971;49.646;8.568;2022-12-07T08:21:42;4.93;;;2.53;;
11827;SDS011;5971;49.646;8.568;2022-12-07T08:24:43;4.78;;;3.50;;
11827;SDS011;5971;49.646;8.568;2022-12-07T08:27:44;6.65;;;3.08;;
11827;SDS011;5971;49.646;8.568;2022-12-07T08:30:46;9.00;;;3.65;;
11827;SDS011;5971;49.646;8.568;2022-12-07T08:33:48;5.30;;;2.45;;
11827;SDS011;5971;49.646;8.568;2022-12-07T08:36:49;4.95;;;2.88;;
11827;SDS011;5971;49.646;8.568;2022-12-07T08:39:50;7.90;;;3.78;;
11827;SDS011;5971;49.646;8.568;2022-12-07T08:42:52;5.82;;;3.75;;
11827;SDS011;5971;49.646;8.568;2022-12-07T08:45:56;6.30;;;3.35;;
11827;SDS011;5971;49.646;8.568;2022-12-07T08:49:16;10.35;;;3.38;;
11827;SDS011;5971;49.646;8.568;2022-12-07T08:52:19;6.45;;;2.67;;
11827;SDS011;5971;49.646;8.568;2022-12-07T08:55:20;6.47;;;2.97;;
11827;SDS011;5971;49.646;8.568;2022-12-07T08:58:22;8.40;;;3.90;;
11827;SDS011;5971;49.646;8.568;2022-12-07T09:01:23;7.63;;;4.22;;
11827;SDS011;5971;49.646;8.568;2022-12-07T09:04:25;6.50;;;3.67;;
11827;SDS011;5971;49.646;8.568;2022-12-07T09:07:26;7.15;;;3.90;;
11827;SDS011;5971;49.646;8.568;2022-12-07T09:10:28;8.55;;;5.45;;
11827;SDS011;5971;49.646;8.568;2022-12-07T09:13:30;11.02;;;3.90;;
11827;SDS011;5971;49.646;8.568;2022-12-07T09:16:31;7.20;;;4.00;;
11827;SDS011;5971;49.646;8.568;2022-12-07T09:19:33;7.88;;;4.35;;
11827;SDS011;5971;49.646;8.568;2022-12-07T09:22:34;13.00;;;5.57;;
11827;SDS011;5971;49.646;8.568;2022-12-07T09:25:36;9.00;;;4.43;;
11827;SDS011;5971;49.646;8.568;2022-12-07T09:28:37;11.68;;;5.22;;
11827;SDS011;5971;49.646;8.568;2022-12-07T09:31:39;11.82;;;5.75;;
11827;SDS011;5971;49.646;8.568;2022-12-07T09:34:40;16.98;;;7.70;;
11827;SDS011;5971;49.646;8.568;2022-12-07T09:37:41;8.70;;;4.63;;
11827;SDS011;5971;49.646;8.568;2022-12-07T09:40:43;7.32;;;4.18;;
11827;SDS011;5971;49.646;8.568;2022-12-07T09:43:44;11.05;;;5.50;;
11827;SDS011;5971;49.646;8.568;2022-12-07T09:46:47;18.92;;;9.00;;
11827;SDS011;5971;49.646;8.568;2022-12-07T09:49:48;9.43;;;4.95;;
11827;SDS011;5971;49.646;8.568;2022-12-07T09:52:50;12.35;;;6.05;;
11827;SDS011;5971;49.646;8.568;2022-12-07T09:55:51;11.57;;;6.18;;
11827;SDS011;5971;49.646;8.568;2022-12-07T09:58:55;9.02;;;4.63;;
11827;SDS011;5971;49.646;8.568;2022-12-07T10:02:04;11.18;;;6.53;;
11827;SDS011;5971;49.646;8.568;2022-12-07T10:05:19;10.68;;;5.90;;
11827;SDS011;5971;49.646;8.568;2022-12-07T10:08:25;5.43;;;3.17;;
11827;SDS011;5971;49.646;8.568;2022-12-07T10:11:26;7.25;;;3.33;;
11827;SDS011;5971;49.646;8.568;2022-12-07T10:14:29;4.97;;;3.08;;
11827;SDS011;5971;49.646;8.568;2022-12-07T10:17:51;8.00;;;4.55;;
11827;SDS011;5971;49.646;8.568;2022-12-07T10:27:05;10.35;;;3.97;;
11827;SDS011;5971;49.646;8.568;2022-12-07T10:30:17;8.45;;;3.65;;
11827;SDS011;5971;49.646;8.568;2022-12-07T10:33:29;5.97;;;3.08;;
11827;SDS011;5971;49.646;8.568;2022-12-07T10:42:46;6.78;;;2.72;;
11827;SDS011;5971;49.646;8.568;2022-12-07T10:52:39;6.50;;;2.80;;
11827;SDS011;5971;49.646;8.568;2022-12-07T11:02:25;4.63;;;2.25;;
11827;SDS011;5971;49.646;8.568;2022-12-07T11:18:15;7.13;;;3.53;;
11827;SDS011;5971;49.646;8.568;2022-12-07T11:21:28;6.13;;;3.25;;
11827;SDS011;5971;49.646;8.568;2022-12-07T11:24:48;6.72;;;3.05;;
11827;SDS011;5971;49.646;8.568;2022-12-07T11:37:34;5.78;;;2.42;;
11827;SDS011;5971;49.646;8.568;2022-12-07T11:40:39;6.50;;;3.08;;
11827;SDS011;5971;49.646;8.568;2022-12-07T11:43:50;8.70;;;3.28;;
11827;SDS011;5971;49.646;8.568;2022-12-07T11:59:18;5.45;;;1.95;;
11827;SDS011;5971;49.646;8.568;2022-12-07T12:02:23;4.15;;;2.30;;
11827;SDS011;5971;49.646;8.568;2022-12-07T12:05:27;4.18;;;2.22;;
11827;SDS011;5971;49.646;8.568;2022-12-07T12:08:31;8.70;;;1.98;;
11827;SDS011;5971;49.646;8.568;2022-12-07T12:21:47;3.95;;;1.73;;
11827;SDS011;5971;49.646;8.568;2022-12-07T12:24:54;2.45;;;1.35;;
11827;SDS011;5971;49.646;8.568;2022-12-07T12:27:57;5.68;;;1.50;;
11827;SDS011;5971;49.646;8.568;2022-12-07T12:31:13;2.20;;;1.10;;
11827;SDS011;5971;49.646;8.568;2022-12-07T12:34:32;1.58;;;1.08;;
11827;SDS011;5971;49.646;8.568;2022-12-07T12:40:38;1.92;;;1.15;;
11827;SDS011;5971;49.646;8.568;2022-12-07T12:43:47;1.58;;;1.10;;
11827;SDS011;5971;49.646;8.568;2022-12-07T12:53:25;3.08;;;1.25;;
11827;SDS011;5971;49.646;8.568;2022-12-07T12:56:32;2.58;;;1.30;;
11827;SDS011;5971;49.646;8.568;2022-12-07T12:59:36;3.47;;;1.23;;
11827;SDS011;5971;49.646;8.568;2022-12-07T13:02:47;2.00;;;1.20;;
11827;SDS011;5971;49.646;8.568;2022-12-07T13:05:57;1.70;;;1.23;;
11827;SDS011;5971;49.646;8.568;2022-12-07T13:09:21;3.22;;;1.58;;
11827;SDS011;5971;49.646;8.568;2022-12-07T13:12:24;2.15;;;1.05;;
11827;SDS011;5971;49.646;8.568;2022-12-07T13:15:33;2.88;;;1.40;;
11827;SDS011;5971;49.646;8.568;2022-12-07T13:18:35;1.98;;;1.05;;
11827;SDS011;5971;49.646;8.568;2022-12-07T13:24:38;2.13;;;1.45;;
11827;SDS011;5971;49.646;8.568;2022-12-07T13:27:41;2.72;;;1.27;;
11827;SDS011;5971;49.646;8.568;2022-12-07T13:31:09;3.30;;;1.50;;
11827;SDS011;5971;49.646;8.568;2022-12-07T13:34:05;3.40;;;1.80;;
11827;SDS011;5971;49.646;8.568;2022-12-07T13:37:10;5.53;;;1.88;;
11827;SDS011;5971;49.646;8.568;2022-12-07T13:40:20;3.00;;;1.60;;
11827;SDS011;5971;49.646;8.568;2022-12-07T13:43:21;4.68;;;2.03;;
11827;SDS011;5971;49.646;8.568;2022-12-07T13:46:27;4.90;;;2.17;;
11827;SDS011;5971;49.646;8.568;2022-12-07T13:49:36;2.95;;;1.90;;
11827;SDS011;5971;49.646;8.568;2022-12-07T13:52:42;3.70;;;1.67;;
11827;SDS011;5971;49.646;8.568;2022-12-07T13:55:44;3.80;;;1.70;;
11827;SDS011;5971;49.646;8.568;2022-12-07T13:58:54;4.70;;;1.65;;
11827;SDS011;5971;49.646;8.568;2022-12-07T14:01:55;3.60;;;1.67;;
11827;SDS011;5971;49.646;8.568;2022-12-07T14:05:10;3.50;;;2.00;;
11827;SDS011;5971;49.646;8.568;2022-12-07T14:11:17;3.33;;;1.90;;
11827;SDS011;5971;49.646;8.568;2022-12-07T14:14:21;5.95;;;2.15;;
11827;SDS011;5971;49.646;8.568;2022-12-07T14:17:24;2.97;;;1.63;;
11827;SDS011;5971;49.646;8.568;2022-12-07T14:20:29;6.32;;;2.17;;
11827;SDS011;5971;49.646;8.568;2022-12-07T14:23:30;3.05;;;1.88;;
11827;SDS011;5971;49.646;8.568;2022-12-07T14:26:32;3.20;;;1.30;;
11827;SDS011;5971;49.646;8.568;2022-12-07T14:29:33;5.63;;;2.38;;
11827;SDS011;5971;49.646;8.568;2022-12-07T14:32:35;3.78;;;1.88;;
11827;SDS011;5971;49.646;8.568;2022-12-07T14:35:36;7.25;;;2.22;;
11827;SDS011;5971;49.646;8.568;2022-12-07T14:38:38;3.42;;;1.80;;
11827;SDS011;5971;49.646;8.568;2022-12-07T14:41:39;5.65;;;2.15;;
11827;SDS011;5971;49.646;8.568;2022-12-07T14:44:53;6.00;;;3.08;;
11827;SDS011;5971;49.646;8.568;2022-12-07T14:47:54;4.55;;;2.15;;
11827;SDS011;5971;49.646;8.568;2022-12-07T14:51:15;3.50;;;1.55;;
11827;SDS011;5971;49.646;8.568;2022-12-07T14:54:37;4.57;;;2.58;;
11827;SDS011;5971;49.646;8.568;2022-12-07T14:57:38;3.20;;;1.50;;
11827;SDS011;5971;49.646;8.568;2022-12-07T15:00:40;4.63;;;2.28;;
11827;SDS011;5971;49.646;8.568;2022-12-07T15:03:41;6.55;;;2.53;;
11827;SDS011;5971;49.646;8.568;2022-12-07T15:06:48;3.17;;;1.98;;
11827;SDS011;5971;49.646;8.568;2022-12-07T15:09:55;3.55;;;1.77;;
11827;SDS011;5971;49.646;8.568;2022-12-07T15:12:56;3.05;;;1.48;;
11827;SDS011;5971;49.646;8.568;2022-12-07T15:16:20;3.10;;;1.58;;
11827;SDS011;5971;49.646;8.568;2022-12-07T15:19:23;2.20;;;1.73;;
11827;SDS011;5971;49.646;8.568;2022-12-07T15:22:29;3.55;;;2.83;;
11827;SDS011;5971;49.646;8.568;2022-12-07T15:25:41;2.80;;;1.42;;
11827;SDS011;5971;49.646;8.568;2022-12-07T15:28:43;2.72;;;1.80;;
11827;SDS011;5971;49.646;8.568;2022-12-07T15:31:44;2.92;;;1.52;;
11827;SDS011;5971;49.646;8.568;2022-12-07T15:34:56;2.92;;;1.52;;
11827;SDS011;5971;49.646;8.568;2022-12-07T15:37:58;3.55;;;1.98;;
11827;SDS011;5971;49.646;8.568;2022-12-07T15:40:59;5.07;;;1.73;;
11827;SDS011;5971;49.646;8.568;2022-12-07T15:44:00;9.20;;;2.17;;
11827;SDS011;5971;49.646;8.568;2022-12-07T15:47:20;3.47;;;1.67;;
11827;SDS011;5971;49.646;8.568;2022-12-07T15:50:22;3.40;;;1.67;;
11827;SDS011;5971;49.646;8.568;2022-12-07T15:53:23;3.45;;;2.50;;
11827;SDS011;5971;49.646;8.568;2022-12-07T15:56:24;4.47;;;1.98;;
11827;SDS011;5971;49.646;8.568;2022-12-07T15:59:26;3.17;;;2.20;;
11827;SDS011;5971;49.646;8.568;2022-12-07T16:02:28;3.40;;;1.90;;
11827;SDS011;5971;49.646;8.568;2022-12-07T16:05:29;4.75;;;2.83;;
11827;SDS011;5971;49.646;8.568;2022-12-07T16:08:30;2.35;;;1.60;;
11827;SDS011;5971;49.646;8.568;2022-12-07T16:11:36;2.33;;;1.55;;
11827;SDS011;5971;49.646;8.568;2022-12-07T16:14:38;5.75;;;2.70;;
11827;SDS011;5971;49.646;8.568;2022-12-07T16:17:39;4.40;;;2.13;;
11827;SDS011;5971;49.646;8.568;2022-12-07T16:20:41;6.13;;;2.50;;
11827;SDS011;5971;49.646;8.568;2022-12-07T16:23:42;3.85;;;2.22;;
11827;SDS011;5971;49.646;8.568;2022-12-07T16:26:44;4.78;;;2.15;;
11827;SDS011;5971;49.646;8.568;2022-12-07T16:29:50;7.65;;;2.55;;
11827;SDS011;5971;49.646;8.568;2022-12-07T16:32:51;4.10;;;2.47;;
11827;SDS011;5971;49.646;8.568;2022-12-07T16:35:57;3.45;;;1.83;;
11827;SDS011;5971;49.646;8.568;2022-12-07T16:38:59;6.50;;;2.90;;
11827;SDS011;5971;49.646;8.568;2022-12-07T16:42:01;5.25;;;2.38;;
11827;SDS011;5971;49.646;8.568;2022-12-07T16:45:02;5.00;;;3.17;;
11827;SDS011;5971;49.646;8.568;2022-12-07T16:48:05;8.27;;;2.88;;
11827;SDS011;5971;49.646;8.568;2022-12-07T16:51:06;3.55;;;2.65;;
11827;SDS011;5971;49.646;8.568;2022-12-07T16:54:10;4.25;;;1.98;;
11827;SDS011;5971;49.646;8.568;2022-12-07T16:57:11;6.85;;;2.45;;
11827;SDS011;5971;49.646;8.568;2022-12-07T17:00:21;5.35;;;2.08;;
11827;SDS011;5971;49.646;8.568;2022-12-07T17:03:23;9.05;;;3.47;;
11827;SDS011;5971;49.646;8.568;2022-12-07T17:06:25;3.15;;;2.20;;
11827;SDS011;5971;49.646;8.568;2022-12-07T17:09:26;4.80;;;3.03;;
11827;SDS011;5971;49.646;8.568;2022-12-07T17:12:28;3.70;;;2.40;;
11827;SDS011;5971;49.646;8.568;2022-12-07T17:15:29;2.40;;;1.55;;
11827;SDS011;5971;49.646;8.568;2022-12-07T17:18:33;5.45;;;2.88;;
11827;SDS011;5971;49.646;8.568;2022-12-07T17:21:34;3.60;;;2.05;;
11827;SDS011;5971;49.646;8.568;2022-12-07T17:24:36;5.78;;;2.13;;
11827;SDS011;5971;49.646;8.568;2022-12-07T17:27:37;3.47;;;2.03;;
11827;SDS011;5971;49.646;8.568;2022-12-07T17:30:38;3.55;;;2.05;;
11827;SDS011;5971;49.646;8.568;2022-12-07T17:33:40;4.38;;;2.35;;
11827;SDS011;5971;49.646;8.568;2022-12-07T17:36:41;4.78;;;2.33;;
11827;SDS011;5971;49.646;8.568;2022-12-07T17:39:43;3.42;;;2.40;;
11827;SDS011;5971;49.646;8.568;2022-12-07T17:42:44;3.55;;;2.35;;
11827;SDS011;5971;49.646;8.568;2022-12-07T17:45:50;3.40;;;2.10;;
11827;SDS011;5971;49.646;8.568;2022-12-07T17:48:53;6.93;;;2.20;;
11827;SDS011;5971;49.646;8.568;2022-12-07T17:51:54;4.68;;;1.75;;
11827;SDS011;5971;49.646;8.568;2022-12-07T17:55:14;3.70;;;2.08;;
11827;SDS011;5971;49.646;8.568;2022-12-07T17:58:15;5.35;;;3.58;;
11827;SDS011;5971;49.646;8.568;2022-12-07T18:01:17;4.57;;;2.10;;
11827;SDS011;5971;49.646;8.568;2022-12-07T18:04:24;3.22;;;1.88;;
11827;SDS011;5971;49.646;8.568;2022-12-07T18:07:25;3.47;;;1.85;;
11827;SDS011;5971;49.646;8.568;2022-12-07T18:10:26;3.78;;;1.98;;
11827;SDS011;5971;49.646;8.568;2022-12-07T18:13:28;3.95;;;2.55;;
11827;SDS011;5971;49.646;8.568;2022-12-07T18:16:38;2.28;;;1.45;;
11827;SDS011;5971;49.646;8.568;2022-12-07T18:19:40;4.43;;;2.88;;
11827;SDS011;5971;49.646;8.568;2022-12-07T18:22:41;5.70;;;3.08;;
11827;SDS011;5971;49.646;8.568;2022-12-07T18:25:46;3.58;;;2.55;;
11827;SDS011;5971;49.646;8.568;2022-12-07T18:31:48;5.70;;;2.13;;
11827;SDS011;5971;49.646;8.568;2022-12-07T18:34:50;4.38;;;2.25;;
11827;SDS011;5971;49.646;8.568;2022-12-07T18:37:51;3.50;;;2.35;;
11827;SDS011;5971;49.646;8.568;2022-12-07T18:40:52;6.05;;;3.08;;
11827;SDS011;5971;49.646;8.568;2022-12-07T18:43:54;5.43;;;2.40;;
11827;SDS011;5971;49.646;8.568;2022-12-07T18:46:55;4.82;;;2.70;;
11827;SDS011;5971;49.646;8.568;2022-12-07T18:49:56;6.97;;;3.45;;
11827;SDS011;5971;49.646;8.568;2022-12-07T18:52:58;5.25;;;2.67;;
11827;SDS011;5971;49.646;8.568;2022-12-07T18:59:06;4.03;;;3.22;;
11827;SDS011;5971;49.646;8.568;2022-12-07T19:02:26;4.68;;;1.88;;
11827;SDS011;5971;49.646;8.568;2022-12-07T19:05:28;5.40;;;2.47;;
11827;SDS011;5971;49.646;8.568;2022-12-07T19:08:29;4.30;;;2.45;;
11827;SDS011;5971;49.646;8.568;2022-12-07T19:11:31;5.78;;;2.38;;
11827;SDS011;5971;49.646;8.568;2022-12-07T19:14:51;3.75;;;2.25;;
11827;SDS011;5971;49.646;8.568;2022-12-07T19:17:54;4.55;;;2.15;;
11827;SDS011;5971;49.646;8.568;2022-12-07T19:20:56;4.88;;;2.83;;
11827;SDS011;5971;49.646;8.568;2022-12-07T19:23:57;5.85;;;2.80;;
11827;SDS011;5971;49.646;8.568;2022-12-07T19:26:58;6.35;;;3.28;;
11827;SDS011;5971;49.646;8.568;2022-12-07T19:30:00;7.80;;;3.80;;
11827;SDS011;5971;49.646;8.568;2022-12-07T19:33:01;6.22;;;2.88;;
11827;SDS011;5971;49.646;8.568;2022-12-07T19:36:03;6.20;;;3.25;;
11827;SDS011;5971;49.646;8.568;2022-12-07T19:39:04;5.68;;;2.90;;
11827;SDS011;5971;49.646;8.568;2022-12-07T19:42:14;5.88;;;2.80;;
11827;SDS011;5971;49.646;8.568;2022-12-07T19:45:15;6.68;;;4.10;;
11827;SDS011;5971;49.646;8.568;2022-12-07T19:48:16;6.50;;;3.58;;
11827;SDS011;5971;49.646;8.568;2022-12-07T19:51:18;5.47;;;3.00;;
11827;SDS011;5971;49.646;8.568;2022-12-07T19:54:20;4.78;;;3.40;;
11827;SDS011;5971;49.646;8.568;2022-12-07T19:57:22;6.43;;;3.17;;
11827;SDS011;5971;49.646;8.568;2022-12-07T20:00:23;4.90;;;3.22;;
11827;SDS011;5971;49.646;8.568;2022-12-07T20:03:25;5.80;;;3.25;;
11827;SDS011;5971;49.646;8.568;2022-12-07T20:06:26;8.65;;;3.63;;
11827;SDS011;5971;49.646;8.568;2022-12-07T20:09:28;8.05;;;4.18;;
11827;SDS011;5971;49.646;8.568;2022-12-07T20:12:29;7.25;;;3.47;;
11827;SDS011;5971;49.646;8.568;2022-12-07T20:15:49;5.90;;;3.50;;
11827;SDS011;5971;49.646;8.568;2022-12-07T20:18:51;5.82;;;2.88;;
11827;SDS011;5971;49.646;8.568;2022-12-07T20:21:58;6.13;;;4.60;;
11827;SDS011;5971;49.646;8.568;2022-12-07T20:24:59;5.93;;;4.10;;
11827;SDS011;5971;49.646;8.568;2022-12-07T20:28:00;7.72;;;4.57;;
11827;SDS011;5971;49.646;8.568;2022-12-07T20:31:02;6.82;;;3.25;;
11827;SDS011;5971;49.646;8.568;2022-12-07T20:34:04;8.18;;;4.85;;
11827;SDS011;5971;49.646;8.568;2022-12-07T20:37:05;6.20;;;3.25;;